Time;durP1;ratioP1;P1;durP2;ratioP2;P2;SDS_P1;SDS_P2;PMS_P1;PMS_P2;Temp;Humidity;BMP_temperature;BMP_pressure;BME280_temperature;BME280_humidity;BME280_pressure;Samples;Min_cycle;Max_cycle;Signal;HPM_P1;HPM_P2
2020/12/20 00:00:15;;;;;;;37.75;16.42;;;;;;;-1.86;100.00;96315.28;1043984;28;20029;-70
2020/12/20 00:00:49;;;;;;;36.00;16.98;;;;;;;-1.90;100.00;96291.69;1047532;28;20048;-70
2020/12/20 00:01:20;;;;;;;30.30;15.93;;;;;;;-1.79;100.00;96317.00;1045056;28;20032;-70
2020/12/20 00:01:50;;;;;;;39.30;17.83;;;;;;;-1.85;100.00;96298.88;1035074;28;20034;-69
2020/12/20 00:02:21;;;;;;;30.50;16.30;;;;;;;-1.76;100.00;96306.38;1026652;28;20023;-68
2020/12/20 00:02:51;;;;;;;32.10;17.60;;;;;;;-1.77;100.00;96309.91;1026663;28;20019;-69
2020/12/20 00:03:22;;;;;;;31.73;15.95;;;;;;;-1.79;100.00;96311.84;1030823;28;20415;-69
2020/12/20 00:03:53;;;;;;;44.93;16.87;;;;;;;-1.81;100.00;96308.66;1026735;28;20047;-69
2020/12/20 00:04:23;;;;;;;53.43;17.83;;;;;;;-1.83;100.00;96309.81;1030409;28;20048;-71
2020/12/20 00:04:54;;;;;;;43.10;17.90;;;;;;;-1.91;100.00;96313.22;1031100;28;20038;-70
2020/12/20 00:05:24;;;;;;;40.97;16.80;;;;;;;-1.96;100.00;96303.44;1038876;28;20482;-69
2020/12/20 00:05:55;;;;;;;31.60;16.83;;;;;;;-1.92;100.00;96299.53;1038754;28;20029;-68
2020/12/20 00:06:25;;;;;;;40.27;17.70;;;;;;;-1.91;100.00;96298.59;1034695;28;20029;-69
2020/12/20 00:06:56;;;;;;;35.83;18.20;;;;;;;-1.88;100.00;96304.34;1030668;28;20171;-69
2020/12/20 00:07:26;;;;;;;33.87;17.57;;;;;;;-1.94;100.00;96291.22;1025880;28;20110;-70
2020/12/20 00:07:57;;;;;;;32.30;18.57;;;;;;;-1.83;100.00;96299.50;1022447;28;20082;-71
2020/12/20 00:08:27;;;;;;;36.00;18.67;;;;;;;-1.89;100.00;96288.13;1022825;28;20049;-69
2020/12/20 00:08:58;;;;;;;32.60;18.30;;;;;;;-1.89;100.00;96285.56;1022866;28;20069;-71
2020/12/20 00:09:28;;;;;;;38.70;18.23;;;;;;;-1.80;100.00;96296.59;1024867;28;20031;-68
2020/12/20 00:09:59;;;;;;;61.43;19.67;;;;;;;-1.93;100.00;96279.94;1026635;28;20035;-68
2020/12/20 00:10:29;;;;;;;44.40;17.27;;;;;;;-1.83;100.00;96291.78;1022952;28;20614;-70
2020/12/20 00:11:00;;;;;;;45.90;19.07;;;;;;;-1.78;100.00;96298.00;1026619;28;20063;-68
2020/12/20 00:11:30;;;;;;;36.77;19.20;;;;;;;-1.83;100.00;96289.22;1026411;28;20603;-68
2020/12/20 00:12:02;;;;;;;38.40;19.77;;;;;;;-1.78;100.00;96294.63;1026767;28;20034;-68
2020/12/20 00:12:34;;;;;;;37.90;18.20;;;;;;;-1.84;100.00;96298.72;1030799;28;20027;-70
2020/12/20 00:13:04;;;;;;;39.63;19.90;;;;;;;-1.84;100.00;96287.63;1022444;28;20077;-69
2020/12/20 00:13:35;;;;;;;46.30;19.53;;;;;;;-1.97;100.00;96277.91;1023512;28;20066;-69
2020/12/20 00:14:55;;;;;;;54.92;22.45;;;;;;;-1.92;100.00;96288.47;1024956;28;20119;-71
2020/12/20 00:15:26;;;;;;;46.63;20.73;;;;;;;-1.89;100.00;96290.69;1018954;29;20043;-69
2020/12/20 00:15:57;;;;;;;44.50;21.98;;;;;;;-1.95;100.00;96273.38;1023851;28;20023;-69
2020/12/20 00:16:28;;;;;;;70.50;26.33;;;;;;;-1.93;100.00;96285.09;1022162;28;20045;-68
2020/12/20 00:16:59;;;;;;;57.55;23.50;;;;;;;-1.90;100.00;96284.75;1026044;28;20503;-68
2020/12/20 00:17:29;;;;;;;51.63;22.53;;;;;;;-1.93;100.00;96279.94;1022954;29;20049;-69
2020/12/20 00:18:00;;;;;;;62.70;21.90;;;;;;;-1.90;100.00;96286.53;1020671;28;20020;-68
2020/12/20 00:18:30;;;;;;;51.27;21.73;;;;;;;-1.89;100.00;96293.28;1023286;28;20011;-68
2020/12/20 00:19:01;;;;;;;46.50;21.40;;;;;;;-1.89;100.00;96282.97;1026337;28;20025;-70
2020/12/20 00:19:32;;;;;;;57.37;22.50;;;;;;;-1.94;100.00;96282.72;1030704;28;20417;-68
2020/12/20 00:20:04;;;;;;;57.45;23.17;;;;;;;-1.87;100.00;96282.81;1030809;28;20348;-70
2020/12/20 00:20:34;;;;;;;62.17;23.00;;;;;;;-1.89;100.00;96285.56;1027186;28;20022;-72
2020/12/20 00:21:05;;;;;;;52.80;21.03;;;;;;;-1.89;100.00;96288.13;1026765;28;20381;-70
2020/12/20 00:21:35;;;;;;;46.47;21.53;;;;;;;-2.00;100.00;96273.09;1032963;28;20032;-69
2020/12/20 00:22:07;;;;;;;50.37;22.83;;;;;;;-1.88;100.00;96281.22;1026763;28;20014;-70
2020/12/20 00:22:37;;;;;;;57.08;21.23;;;;;;;-1.90;100.00;96284.75;1022637;29;20511;-70
2020/12/20 00:23:08;;;;;;;67.20;20.83;;;;;;;-1.92;100.00;96278.19;1020522;28;20027;-68
2020/12/20 00:23:38;;;;;;;58.23;21.07;;;;;;;-1.93;100.00;96279.94;1022682;29;20069;-69
2020/12/20 00:24:10;;;;;;;45.20;21.03;;;;;;;-1.92;100.00;96286.69;1022855;28;20035;-68
2020/12/20 00:24:41;;;;;;;48.70;20.80;;;;;;;-2.06;100.00;96269.44;1030549;28;20105;-69
2020/12/20 00:25:13;;;;;;;52.67;20.95;;;;;;;-2.00;100.00;96283.38;1030758;28;20017;-70
2020/12/20 00:25:43;;;;;;;40.55;19.73;;;;;;;-1.94;100.00;96287.84;1026958;28;20017;-71
2020/12/20 00:26:14;;;;;;;42.07;19.93;;;;;;;-1.97;100.00;96280.47;1031330;28;20033;-69
2020/12/20 00:26:45;;;;;;;44.13;17.73;;;;;;;-1.98;100.00;96291.72;1030471;28;20026;-68
2020/12/20 00:27:15;;;;;;;46.27;18.83;;;;;;;-2.03;100.00;96278.59;1030665;28;20026;-70
2020/12/20 00:27:45;;;;;;;41.13;20.07;;;;;;;-1.99;100.00;96288.34;1026377;28;20657;-68
2020/12/20 00:28:16;;;;;;;46.93;21.07;;;;;;;-1.98;100.00;96287.41;1026990;28;20027;-74
2020/12/20 00:28:46;;;;;;;46.37;19.47;;;;;;;-2.21;100.00;96256.53;1030808;28;20018;-70
2020/12/20 00:29:17;;;;;;;42.87;20.23;;;;;;;-1.96;100.00;96280.28;1026237;28;20043;-70
2020/12/20 00:29:47;;;;;;;53.70;20.83;;;;;;;-1.91;100.00;96284.94;1026483;28;20015;-68
2020/12/20 00:30:18;;;;;;;40.83;20.77;;;;;;;-1.92;100.00;96288.47;1023042;28;20102;-69
2020/12/20 00:30:48;;;;;;;39.03;19.47;;;;;;;-1.94;100.00;96283.50;1022892;28;20062;-71
2020/12/20 00:31:19;;;;;;;46.73;20.10;;;;;;;-1.91;100.00;96287.50;1026584;28;20021;-68
2020/12/20 00:31:49;;;;;;;32.43;18.60;;;;;;;-1.93;100.00;96279.94;1029956;28;20430;-70
2020/12/20 00:32:20;;;;;;;41.57;21.33;;;;;;;-1.91;100.00;96284.94;1022788;29;20011;-71
2020/12/20 00:32:53;;;;;;;53.37;21.27;;;;;;;-1.87;100.00;96283.63;1022789;28;20086;-71
2020/12/20 00:33:24;;;;;;;80.55;21.55;;;;;;;-1.93;100.00;96286.88;1026988;28;20015;-70
2020/12/20 00:33:54;;;;;;;49.07;21.10;;;;;;;-1.90;100.00;96282.19;1031634;28;20030;-68
2020/12/20 00:34:24;;;;;;;66.50;20.57;;;;;;;-1.91;100.00;96285.75;1035307;28;20114;-70
2020/12/20 00:34:55;;;;;;;49.70;18.37;;;;;;;-1.99;100.00;96275.50;1034520;28;20376;-69
2020/12/20 00:35:25;;;;;;;56.80;21.40;;;;;;;-1.98;100.00;96273.72;1030571;28;20072;-70
2020/12/20 00:35:56;;;;;;;86.23;21.23;;;;;;;-2.05;100.00;96262.50;1030736;28;20026;-71
2020/12/20 00:36:26;;;;;;;50.97;19.97;;;;;;;-2.07;100.00;96256.75;1030554;28;20038;-69
2020/12/20 00:36:57;;;;;;;41.83;19.17;;;;;;;-2.03;100.00;96265.72;1030413;28;20050;-69
2020/12/20 00:37:27;;;;;;;58.37;21.43;;;;;;;-1.96;100.00;96279.50;1026485;28;20027;-69
2020/12/20 00:37:58;;;;;;;71.70;21.63;;;;;;;-1.94;100.00;96278.38;1022498;28;20040;-68
2020/12/20 00:38:28;;;;;;;49.27;20.67;;;;;;;-1.96;100.00;96275.16;1027998;28;20023;-69
2020/12/20 00:38:59;;;;;;;65.80;20.73;;;;;;;-1.95;100.00;96260.50;1034587;28;20030;-71
2020/12/20 00:39:29;;;;;;;65.23;21.17;;;;;;;-2.01;100.00;96256.06;1030639;28;20018;-70
2020/12/20 00:40:00;;;;;;;70.07;21.27;;;;;;;-1.99;100.00;96269.56;1025353;28;20118;-70
2020/12/20 00:40:30;;;;;;;53.33;20.27;;;;;;;-1.97;100.00;96271.00;1023232;28;20459;-69
2020/12/20 00:41:01;;;;;;;59.37;21.73;;;;;;;-1.93;100.00;96276.59;1022478;29;20023;-70
2020/12/20 00:41:32;;;;;;;87.00;21.43;;;;;;;-2.01;100.00;96266.34;1022136;28;20024;-68
2020/12/20 00:42:03;;;;;;;59.67;22.07;;;;;;;-1.95;100.00;96271.59;1026054;28;20030;-68
2020/12/20 00:42:34;;;;;;;46.72;21.27;;;;;;;-1.93;100.00;96281.72;1027087;28;20468;-69
2020/12/20 00:43:04;;;;;;;62.23;20.87;;;;;;;-1.95;100.00;96271.59;1030849;28;20038;-69
2020/12/20 00:43:35;;;;;;;57.47;22.07;;;;;;;-1.95;100.00;96274.16;1030596;28;20345;-70
2020/12/20 00:44:05;;;;;;;48.43;21.50;;;;;;;-1.94;100.00;96275.78;1030178;28;20022;-69
2020/12/20 00:44:36;;;;;;;53.13;21.17;;;;;;;-1.99;100.00;96262.63;1030799;28;20022;-68
2020/12/20 00:45:06;;;;;;;100.93;24.17;;;;;;;-1.95;100.00;96275.94;1026910;28;20006;-67
2020/12/20 00:45:37;;;;;;;128.87;23.30;;;;;;;-1.95;100.00;96274.16;1020198;28;20062;-71
2020/12/20 00:46:07;;;;;;;101.27;22.23;;;;;;;-1.97;100.00;96275.34;1021456;28;20023;-70
2020/12/20 00:46:38;;;;;;;78.53;24.40;;;;;;;-1.95;100.00;96273.38;1022911;28;20016;-68
2020/12/20 00:47:08;;;;;;;66.43;21.00;;;;;;;-2.07;100.00;96262.69;1024113;28;20085;-69
2020/12/20 00:47:39;;;;;;;81.43;23.57;;;;;;;-1.95;100.00;96286.22;1022244;28;20188;-71
2020/12/20 00:48:09;;;;;;;139.63;23.77;;;;;;;-2.05;100.00;96272.78;1046679;28;20066;-71
2020/12/20 00:48:40;;;;;;;110.30;23.63;;;;;;;-2.08;100.00;96270.56;1043260;28;20013;-70
2020/12/20 00:49:10;;;;;;;45.17;20.77;;;;;;;-2.03;100.00;96278.59;1034159;28;20726;-70
2020/12/20 00:49:41;;;;;;;124.07;23.97;;;;;;;-2.04;100.00;96282.94;1034427;28;20018;-70
2020/12/20 00:50:11;;;;;;;142.03;27.73;;;;;;;-2.06;100.00;96278.91;1029454;28;20018;-70
2020/12/20 00:50:42;;;;;;;101.70;24.87;;;;;;;-2.07;100.00;96272.19;1029117;28;20062;-70
2020/12/20 00:51:12;;;;;;;73.73;24.27;;;;;;;-2.05;100.00;96271.03;1034513;28;20028;-68
2020/12/20 00:51:43;;;;;;;78.73;23.73;;;;;;;-2.05;100.00;96265.09;1033685;28;20542;-66
2020/12/20 00:52:13;;;;;;;64.07;22.30;;;;;;;-2.07;100.00;96267.03;1032081;28;20018;-70
2020/12/20 00:52:44;;;;;;;64.10;24.47;;;;;;;-2.11;100.00;96255.47;1034580;28;20127;-71
2020/12/20 00:53:14;;;;;;;83.37;24.30;;;;;;;-2.05;100.00;96270.22;1030759;28;20015;-69
2020/12/20 00:53:45;;;;;;;69.27;21.67;;;;;;;-2.06;100.00;96264.28;1029170;28;20022;-71
2020/12/20 00:54:15;;;;;;;75.10;23.20;;;;;;;-2.16;100.00;96253.44;1026728;28;20043;-70
2020/12/20 00:54:46;;;;;;;61.03;23.47;;;;;;;-2.06;100.00;96266.06;1022680;28;20384;-69
2020/12/20 00:55:16;;;;;;;61.33;23.40;;;;;;;-2.05;100.00;96265.88;1034805;28;20018;-71
2020/12/20 00:55:50;;;;;;;62.33;24.03;;;;;;;-2.01;100.00;96269.72;1033451;28;20026;-69
2020/12/20 00:56:20;;;;;;;63.03;21.10;;;;;;;-2.05;100.00;96265.09;1034934;28;20018;-69
2020/12/20 00:56:51;;;;;;;64.80;21.73;;;;;;;-2.03;100.00;96268.28;1035038;28;20026;-69
2020/12/20 00:57:21;;;;;;;47.70;20.43;;;;;;;-2.06;100.00;96264.28;1036876;28;20030;-69
2020/12/20 00:57:52;;;;;;;54.83;22.73;;;;;;;-2.05;100.00;96265.09;1038559;28;20378;-70
2020/12/20 00:58:23;;;;;;;55.60;22.63;;;;;;;-2.06;100.00;96258.34;1042765;28;20009;-72
2020/12/20 00:58:53;;;;;;;64.57;22.57;;;;;;;-2.05;100.00;96265.88;1038133;28;20040;-71
2020/12/20 00:59:24;;;;;;;48.70;21.87;;;;;;;-2.03;100.00;96269.09;1038801;28;20029;-70
2020/12/20 00:59:54;;;;;;;49.43;24.40;;;;;;;-2.00;100.00;96267.97;1030546;28;20027;-70
2020/12/20 01:00:25;;;;;;;67.17;23.57;;;;;;;-2.07;100.00;96256.75;1034373;28;20064;-73
2020/12/20 01:00:55;;;;;;;53.50;22.13;;;;;;;-2.00;100.00;96263.63;1027989;28;20049;-70
2020/12/20 01:01:26;;;;;;;51.47;21.57;;;;;;;-2.03;100.00;96269.09;1030128;28;20525;-68
2020/12/20 01:01:57;;;;;;;38.13;20.63;;;;;;;-2.02;100.00;96262.19;1034359;28;20033;-69
2020/12/20 01:02:27;;;;;;;40.43;20.93;;;;;;;-1.98;100.00;96266.00;1035836;28;20042;-71
2020/12/20 01:02:58;;;;;;;35.63;19.23;;;;;;;-1.95;100.00;96268.22;1026423;28;20062;-69
2020/12/20 01:03:28;;;;;;;42.43;21.77;;;;;;;-2.02;100.00;96255.25;1026942;28;20509;-68
2020/12/20 01:03:59;;;;;;;47.67;21.40;;;;;;;-1.97;100.00;96263.28;1026281;28;20042;-69
2020/12/20 01:04:29;;;;;;;57.17;19.77;;;;;;;-1.97;100.00;96265.84;1022794;28;20023;-69
2020/12/20 01:05:00;;;;;;;42.17;19.50;;;;;;;-2.01;100.00;96261.19;1026546;28;20096;-70
2020/12/20 01:05:30;;;;;;;35.70;19.30;;;;;;;-2.08;100.00;96244.84;1022486;28;20049;-70
2020/12/20 01:06:00;;;;;;;39.30;19.53;;;;;;;-1.99;100.00;96259.28;1022428;28;20031;-68
2020/12/20 01:06:31;;;;;;;54.27;20.43;;;;;;;-2.00;100.00;96257.69;1026769;28;20069;-70
2020/12/20 01:07:02;;;;;;;40.13;19.47;;;;;;;-2.01;100.00;96258.63;1030371;28;20509;-70
2020/12/20 01:07:32;;;;;;;37.90;19.15;;;;;;;-2.06;100.00;96248.88;1030457;28;20373;-69
2020/12/20 01:08:03;;;;;;;39.10;19.23;;;;;;;-1.99;100.00;96254.13;1029110;28;20038;-69
2020/12/20 01:08:34;;;;;;;43.60;19.43;;;;;;;-2.05;100.00;96249.66;1030627;28;20045;-69
2020/12/20 01:09:05;;;;;;;36.93;19.90;;;;;;;-2.04;100.00;96256.41;1026075;28;20038;-70
2020/12/20 01:09:35;;;;;;;39.10;19.63;;;;;;;-2.09;100.00;96249.19;1026936;28;20034;-70
2020/12/20 01:10:06;;;;;;;38.30;18.40;;;;;;;-2.11;100.00;96251.16;1030393;28;20046;-70
2020/12/20 01:10:36;;;;;;;41.73;21.27;;;;;;;-2.11;100.00;96250.34;1026866;28;20641;-73
2020/12/20 01:11:07;;;;;;;37.90;19.73;;;;;;;-2.05;100.00;96252.22;1026277;28;20035;-69
2020/12/20 01:11:37;;;;;;;38.30;20.17;;;;;;;-2.16;100.00;96232.88;1025872;28;20188;-69
2020/12/20 01:12:08;;;;;;;32.73;17.87;;;;;;;-2.02;100.00;96244.97;1026684;28;20041;-69
2020/12/20 01:12:38;;;;;;;26.93;17.17;;;;;;;-2.01;100.00;96245.78;1030516;28;20046;-71
2020/12/20 01:13:09;;;;;;;34.33;18.40;;;;;;;-2.14;100.00;96231.72;1034529;28;20026;-70
2020/12/20 01:13:43;;;;;;;33.97;19.30;;;;;;;-2.13;100.00;96235.09;1026726;28;20076;-68
2020/12/20 01:14:13;;;;;;;31.10;18.20;;;;;;;-2.04;100.00;96251.28;1026434;28;20072;-71
2020/12/20 01:14:44;;;;;;;34.57;18.90;;;;;;;-2.03;100.00;96242.59;1026924;28;20043;-71
2020/12/20 01:15:14;;;;;;;29.33;18.10;;;;;;;-2.06;100.00;96243.72;1026974;28;20049;-70
2020/12/20 01:15:44;;;;;;;28.63;17.63;;;;;;;-2.05;100.00;96242.75;1030986;28;20081;-69
2020/12/20 01:16:16;;;;;;;29.50;17.40;;;;;;;-2.03;100.00;96237.44;1034738;28;20572;-70
2020/12/20 01:16:46;;;;;;;31.67;18.13;;;;;;;-2.01;100.00;96241.44;1026780;28;20054;-69
2020/12/20 01:17:17;;;;;;;31.60;18.33;;;;;;;-2.03;100.00;96242.59;1026316;28;20561;-70
2020/12/20 01:17:47;;;;;;;37.83;18.17;;;;;;;-2.02;100.00;96241.59;1022519;28;20038;-69
2020/12/20 01:18:18;;;;;;;31.47;17.77;;;;;;;-2.04;100.00;96241.78;1026844;28;20453;-70
2020/12/20 01:18:48;;;;;;;33.70;19.43;;;;;;;-2.03;100.00;96243.38;1026458;28;20034;-70
2020/12/20 01:19:19;;;;;;;36.70;19.50;;;;;;;-2.12;100.00;96223.84;1026229;28;20050;-68
2020/12/20 01:19:49;;;;;;;37.97;17.97;;;;;;;-2.03;100.00;96237.44;1026493;28;20455;-68
2020/12/20 01:20:20;;;;;;;27.90;17.20;;;;;;;-2.02;100.00;96239.03;1030699;28;20026;-69
2020/12/20 01:20:50;;;;;;;34.47;18.57;;;;;;;-2.05;100.00;96229.88;1022357;28;20788;-71
2020/12/20 01:21:21;;;;;;;30.83;18.60;;;;;;;-2.04;100.00;96238.44;1026445;28;20035;-73
2020/12/20 01:21:51;;;;;;;31.37;18.77;;;;;;;-2.06;100.00;96235.22;1022146;29;20058;-71
2020/12/20 01:22:21;;;;;;;29.70;18.30;;;;;;;-2.05;100.00;96236.81;1022728;28;20023;-68
2020/12/20 01:22:52;;;;;;;33.17;19.07;;;;;;;-2.04;100.00;96236.66;1026247;28;20077;-69
2020/12/20 01:23:23;;;;;;;34.60;18.33;;;;;;;-2.07;100.00;96231.84;1026691;28;20492;-70
2020/12/20 01:23:53;;;;;;;31.07;19.27;;;;;;;-2.14;100.00;96221.44;1026463;28;20031;-69
2020/12/20 01:24:24;;;;;;;37.47;18.93;;;;;;;-2.06;100.00;96232.66;1030210;28;20053;-67
2020/12/20 01:24:54;;;;;;;30.67;17.47;;;;;;;-2.05;100.00;96239.38;1030549;28;20045;-68
2020/12/20 01:25:24;;;;;;;29.53;17.77;;;;;;;-2.03;100.00;96233.09;1022651;28;20011;-69
2020/12/20 01:25:55;;;;;;;28.93;17.47;;;;;;;-2.00;100.00;96237.09;1022443;28;20070;-69
2020/12/20 01:26:28;;;;;;;29.47;18.43;;;;;;;-1.98;100.00;96240.28;1026507;28;20031;-70
2020/12/20 01:26:59;;;;;;;30.40;18.23;;;;;;;-1.97;100.00;96232.41;1022757;28;20122;-70
2020/12/20 01:27:29;;;;;;;29.63;17.70;;;;;;;-1.97;100.00;96231.63;1022574;29;20031;-70
2020/12/20 01:28:00;;;;;;;32.23;17.90;;;;;;;-1.96;100.00;96236.59;1021858;28;20023;-68
2020/12/20 01:28:30;;;;;;;33.60;17.37;;;;;;;-2.09;100.00;96223.50;1022796;28;20080;-70
2020/12/20 01:29:01;;;;;;;24.83;16.53;;;;;;;-1.96;100.00;96230.66;1022276;28;20031;-69
2020/12/20 01:29:31;;;;;;;29.20;17.87;;;;;;;-1.98;100.00;96233.41;1021924;28;20089;-68
2020/12/20 01:30:02;;;;;;;28.50;18.63;;;;;;;-1.96;100.00;96230.66;1026173;28;20029;-69
2020/12/20 01:30:32;;;;;;;33.90;19.40;;;;;;;-1.99;100.00;96224.06;1027690;28;20043;-70
2020/12/20 01:31:03;;;;;;;36.03;20.37;;;;;;;-1.99;100.00;96230.97;1022411;29;20038;-69
2020/12/20 01:31:34;;;;;;;46.88;17.75;;;;;;;-2.00;100.00;96232.75;1016337;28;20031;-69
2020/12/20 01:32:04;;;;;;;34.03;17.60;;;;;;;-2.14;100.00;96210.38;1022221;29;20509;-69
2020/12/20 01:32:35;;;;;;;40.37;20.00;;;;;;;-2.00;100.00;96225.03;1018828;29;20036;-69
2020/12/20 01:33:06;;;;;;;36.00;18.43;;;;;;;-2.07;100.00;96215.63;1022581;28;20031;-69
2020/12/20 01:33:36;;;;;;;34.97;19.03;;;;;;;-2.03;100.00;96220.25;1030456;28;20030;-71
2020/12/20 01:34:07;;;;;;;40.30;17.33;;;;;;;-2.13;100.00;96212.75;1022295;29;20313;-69
2020/12/20 01:34:37;;;;;;;40.00;19.50;;;;;;;-2.10;100.00;96218.53;1018670;29;20032;-69
2020/12/20 01:35:10;;;;;;;55.23;18.33;;;;;;;-2.08;100.00;96226.84;1026699;28;20062;-70
2020/12/20 01:35:40;;;;;;;35.63;19.05;;;;;;;-2.11;100.00;96219.50;1026534;28;20685;-69
2020/12/20 01:36:12;;;;;;;41.07;21.03;;;;;;;-2.05;100.00;96223.94;1026631;28;20045;-73
2020/12/20 01:36:42;;;;;;;33.60;19.17;;;;;;;-2.12;100.00;96208.41;1019120;29;20110;-68
2020/12/20 01:37:13;;;;;;;46.33;20.30;;;;;;;-2.03;100.00;96227.16;1027188;28;20050;-69
2020/12/20 01:37:43;;;;;;;38.97;19.60;;;;;;;-2.06;100.00;96228.28;1030824;28;20050;-70
2020/12/20 01:38:14;;;;;;;34.43;19.03;;;;;;;-2.05;100.00;96226.53;1030096;28;20018;-69
2020/12/20 01:38:44;;;;;;;38.30;19.23;;;;;;;-2.13;100.00;96211.97;1026786;28;20026;-71
2020/12/20 01:39:15;;;;;;;34.33;18.77;;;;;;;-2.04;100.00;96228.94;1022627;29;20378;-70
2020/12/20 01:39:46;;;;;;;34.33;17.77;;;;;;;-2.06;100.00;96223.16;1026429;28;20027;-68
2020/12/20 01:40:16;;;;;;;40.00;18.53;;;;;;;-2.08;100.00;96229.44;1030439;28;20068;-70
2020/12/20 01:40:51;;;;;;;39.23;18.60;;;;;;;-2.08;100.00;96229.44;1034838;28;20033;-71
2020/12/20 01:41:21;;;;;;;41.35;20.48;;;;;;;-2.07;100.00;96223.34;1034402;28;20033;-70
2020/12/20 01:41:52;;;;;;;39.80;18.33;;;;;;;-2.07;100.00;96229.28;1038536;28;20670;-68
2020/12/20 01:42:22;;;;;;;37.97;20.27;;;;;;;-2.06;100.00;96227.50;1030230;28;20030;-70
2020/12/20 01:42:54;;;;;;;44.70;20.53;;;;;;;-2.06;100.00;96222.38;1030855;28;20115;-71
2020/12/20 01:43:25;;;;;;;45.67;19.67;;;;;;;-2.08;100.00;96219.94;1026316;28;20030;-71
2020/12/20 01:43:55;;;;;;;36.07;19.17;;;;;;;-2.08;100.00;96230.22;1030392;28;20065;-70
2020/12/20 01:44:26;;;;;;;32.33;17.47;;;;;;;-2.09;100.00;96223.50;1030165;28;20042;-69
2020/12/20 01:44:57;;;;;;;37.77;20.30;;;;;;;-2.18;100.00;96204.78;1030547;28;20033;-70
2020/12/20 01:45:27;;;;;;;34.83;18.58;;;;;;;-2.07;100.00;96224.13;1030530;28;20021;-69
2020/12/20 01:45:58;;;;;;;44.40;21.50;;;;;;;-2.17;100.00;96208.13;1026366;28;20066;-68
2020/12/20 01:46:28;;;;;;;33.93;19.83;;;;;;;-2.09;100.00;96222.69;1026057;28;20080;-70
2020/12/20 01:46:59;;;;;;;39.53;19.53;;;;;;;-2.07;100.00;96226.72;1026481;28;20030;-69
2020/12/20 01:47:31;;;;;;;32.53;19.00;;;;;;;-2.07;100.00;96223.34;1026688;28;20034;-68
2020/12/20 01:48:02;;;;;;;37.45;19.95;;;;;;;-2.16;100.00;96202.81;1024487;28;20512;-69
2020/12/20 01:48:32;;;;;;;38.43;18.40;;;;;;;-2.15;100.00;96213.88;1030725;28;20022;-69
2020/12/20 01:49:03;;;;;;;39.30;19.27;;;;;;;-2.06;100.00;96222.38;1047405;28;20068;-69
2020/12/20 01:49:33;;;;;;;38.47;20.03;;;;;;;-2.08;100.00;96219.16;1026675;28;20030;-68
2020/12/20 01:50:04;;;;;;;36.17;20.07;;;;;;;-2.08;100.00;96214.00;1026131;28;20031;-68
2020/12/20 01:50:35;;;;;;;33.60;19.70;;;;;;;-2.00;100.00;96224.25;1043243;28;20573;-70
2020/12/20 01:51:06;;;;;;;39.43;19.90;;;;;;;-2.02;100.00;96226.97;1043336;28;20457;-69
2020/12/20 01:51:36;;;;;;;35.47;19.65;;;;;;;-2.05;100.00;96223.94;1042608;28;20458;-71
2020/12/20 01:52:07;;;;;;;34.83;19.93;;;;;;;-2.05;100.00;96226.53;1042808;28;20032;-71
2020/12/20 01:52:37;;;;;;;35.03;18.63;;;;;;;-2.03;100.00;96224.59;1026551;28;20042;-69
2020/12/20 01:53:08;;;;;;;36.30;20.17;;;;;;;-2.08;100.00;96219.16;1022497;29;20015;-69
2020/12/20 01:53:39;;;;;;;38.13;20.27;;;;;;;-2.06;100.00;96222.38;1018426;28;20057;-68
2020/12/20 01:54:09;;;;;;;35.35;19.90;;;;;;;-2.14;100.00;96211.16;1022415;29;20122;-71
2020/12/20 01:54:43;;;;;;;39.23;20.73;;;;;;;-2.05;100.00;96222.19;1030348;28;20046;-68
2020/12/20 01:55:14;;;;;;;31.67;19.17;;;;;;;-2.16;100.00;96212.31;1029298;28;20035;-68
2020/12/20 01:55:44;;;;;;;32.47;19.20;;;;;;;-2.06;100.00;96219.78;1023091;28;20035;-68
2020/12/20 01:56:15;;;;;;;33.40;20.03;;;;;;;-2.06;100.00;96218.00;1022382;29;20031;-69
2020/12/20 01:56:45;;;;;;;31.23;19.10;;;;;;;-2.02;100.00;96223.63;1022554;28;20480;-70
2020/12/20 01:57:16;;;;;;;33.30;17.73;;;;;;;-2.01;100.00;96226.03;1022781;28;20031;-68
2020/12/20 01:57:46;;;;;;;34.53;17.77;;;;;;;-2.05;100.00;96222.19;1032030;28;20034;-70
2020/12/20 01:58:17;;;;;;;31.17;18.13;;;;;;;-2.03;100.00;96227.16;1030273;28;20510;-70
2020/12/20 01:58:47;;;;;;;35.23;19.23;;;;;;;-2.05;100.00;96223.94;1030140;28;20023;-69
2020/12/20 01:59:18;;;;;;;35.27;20.17;;;;;;;-2.17;100.00;96211.50;1030377;28;20042;-68
2020/12/20 01:59:48;;;;;;;34.97;19.20;;;;;;;-2.10;100.00;96223.69;1022698;28;20102;-67
2020/12/20 02:00:19;;;;;;;32.97;19.70;;;;;;;-2.07;100.00;96224.13;1022216;28;20496;-69
2020/12/20 02:00:49;;;;;;;33.03;18.27;;;;;;;-2.08;100.00;96224.28;1022329;28;20026;-71
2020/12/20 02:01:19;;;;;;;34.13;18.60;;;;;;;-2.05;100.00;96229.88;1029951;28;20019;-68
2020/12/20 02:01:50;;;;;;;35.77;19.47;;;;;;;-2.05;100.00;96234.22;1029812;28;20407;-68
2020/12/20 02:02:20;;;;;;;33.93;19.97;;;;;;;-2.05;100.00;96234.22;1030332;28;20101;-69
2020/12/20 02:02:51;;;;;;;35.50;19.60;;;;;;;-2.03;100.00;96234.88;1026593;28;20515;-70
2020/12/20 02:03:22;;;;;;;30.77;18.83;;;;;;;-2.06;100.00;96227.50;1034152;28;20100;-70
2020/12/20 02:03:53;;;;;;;29.98;19.10;;;;;;;-2.03;100.00;96232.31;1022211;28;20027;-71
2020/12/20 02:04:23;;;;;;;33.30;20.40;;;;;;;-2.08;100.00;96224.28;1022445;28;20046;-70
2020/12/20 02:04:54;;;;;;;34.23;19.50;;;;;;;-1.99;100.00;96233.56;1026309;28;20503;-69
2020/12/20 02:05:24;;;;;;;33.03;18.90;;;;;;;-1.99;100.00;96241.28;1021969;28;20031;-68
2020/12/20 02:05:55;;;;;;;29.43;17.87;;;;;;;-1.98;100.00;96237.72;1030471;28;20065;-68
2020/12/20 02:06:25;;;;;;;29.77;18.57;;;;;;;-2.01;100.00;96232.91;1030278;28;20026;-70
2020/12/20 02:06:56;;;;;;;29.37;17.93;;;;;;;-2.09;100.00;96215.78;1026299;28;20085;-68
2020/12/20 02:07:26;;;;;;;32.53;19.43;;;;;;;-2.00;100.00;96240.47;1026279;28;20676;-70
2020/12/20 02:07:56;;;;;;;28.20;17.57;;;;;;;-1.99;100.00;96228.41;1030306;28;20030;-69
2020/12/20 02:08:27;;;;;;;28.20;17.87;;;;;;;-1.97;100.00;96236.75;1033326;28;20038;-72
2020/12/20 02:08:57;;;;;;;28.27;17.00;;;;;;;-1.97;100.00;96236.75;1033223;28;20028;-70
2020/12/20 02:09:28;;;;;;;29.73;18.43;;;;;;;-2.04;100.00;96223.00;1030196;28;20616;-69
2020/12/20 02:09:58;;;;;;;26.30;17.13;;;;;;;-2.01;100.00;96230.34;1026182;28;20042;-69
2020/12/20 02:10:29;;;;;;;29.57;18.03;;;;;;;-1.99;100.00;96233.56;1026314;28;20476;-70
2020/12/20 02:11:25;;;;;;;27.23;17.83;;;;;;;-1.96;100.00;96234.00;1026338;28;20027;-70
2020/12/20 02:12:05;;;;;;;29.00;16.30;;;;;;;-1.94;100.00;96233.84;1027827;28;20121;-68
2020/12/20 02:12:35;;;;;;;26.10;16.10;;;;;;;-1.96;100.00;96230.66;1031198;28;20533;-69
2020/12/20 02:13:06;;;;;;;29.13;17.00;;;;;;;-2.24;100.00;96190.03;1030319;28;20023;-69
2020/12/20 02:13:44;;;;;;;27.30;16.60;;;;;;;-1.98;100.00;96235.16;1022174;29;20030;-70
2020/12/20 02:14:14;;;;;;;26.10;16.40;;;;;;;-2.06;100.00;96222.38;1027380;28;20547;-69
2020/12/20 02:14:45;;;;;;;25.23;16.30;;;;;;;-1.99;100.00;96231.78;1026382;28;20069;-69
2020/12/20 02:15:16;;;;;;;25.08;15.77;;;;;;;-2.01;100.00;96230.34;1028591;28;20027;-70
2020/12/20 02:15:46;;;;;;;27.73;17.20;;;;;;;-2.03;100.00;96233.09;1036935;28;20032;-69
2020/12/20 02:16:21;;;;;;;28.27;17.53;;;;;;;-2.23;100.00;96201.91;1034276;28;20026;-69
2020/12/20 02:16:51;;;;;;;29.58;16.25;;;;;;;-2.00;100.00;96235.34;1030370;28;20047;-71
2020/12/20 02:17:22;;;;;;;24.90;16.07;;;;;;;-1.98;100.00;96235.16;1030192;28;20078;-69
2020/12/20 02:17:52;;;;;;;22.97;15.17;;;;;;;-1.99;100.00;96230.97;1026725;28;20031;-70
2020/12/20 02:18:23;;;;;;;25.23;16.23;;;;;;;-1.97;100.00;96239.34;1026405;28;20039;-68
2020/12/20 02:18:53;;;;;;;30.87;15.97;;;;;;;-2.09;100.00;96225.28;1027184;28;20041;-70
2020/12/20 02:19:25;;;;;;;29.67;16.70;;;;;;;-1.99;100.00;96233.56;1026484;28;20626;-71
2020/12/20 02:19:56;;;;;;;27.95;18.27;;;;;;;-1.97;100.00;96232.41;1025998;28;20492;-72
2020/12/20 02:20:26;;;;;;;28.27;16.67;;;;;;;-1.98;100.00;96235.97;1022406;29;20039;-69
2020/12/20 02:20:57;;;;;;;30.07;17.40;;;;;;;-1.99;100.00;96233.56;1025809;28;20034;-69